sensor_id;sensor_type;location;lat;lon;timestamp;P1;durP1;ratioP1;P2;durP2;ratioP2
56927;SDS011;60850;52.502;13.426;2023-05-29T00:01:19;4.97;;;2.47;;
56927;SDS011;60850;52.502;13.426;2023-05-29T00:03:46;8.23;;;2.72;;
56927;SDS011;60850;52.502;13.426;2023-05-29T00:06:13;7.55;;;2.88;;
56927;SDS011;60850;52.502;13.426;2023-05-29T00:08:41;5.85;;;2.95;;
56927;SDS011;60850;52.502;13.426;2023-05-29T00:11:08;8.35;;;3.53;;
56927;SDS011;60850;52.502;13.426;2023-05-29T00:13:35;6.05;;;2.53;;
56927;SDS011;60850;52.502;13.426;2023-05-29T00:16:02;8.55;;;2.75;;
56927;SDS011;60850;52.502;13.426;2023-05-29T00:18:29;9.20;;;2.47;;
56927;SDS011;60850;52.502;13.426;2023-05-29T00:20:57;6.55;;;2.55;;
56927;SDS011;60850;52.502;13.426;2023-05-29T00:23:23;5.68;;;2.20;;
56927;SDS011;60850;52.502;13.426;2023-05-29T00:25:52;9.50;;;3.05;;
56927;SDS011;60850;52.502;13.426;2023-05-29T00:28:18;9.98;;;2.85;;
56927;SDS011;60850;52.502;13.426;2023-05-29T00:30:46;8.88;;;3.47;;
56927;SDS011;60850;52.502;13.426;2023-05-29T00:33:13;7.15;;;2.28;;
56927;SDS011;60850;52.502;13.426;2023-05-29T00:35:40;8.90;;;2.80;;
56927;SDS011;60850;52.502;13.426;2023-05-29T00:38:06;6.18;;;2.53;;
56927;SDS011;60850;52.502;13.426;2023-05-29T00:40:33;9.32;;;2.90;;
56927;SDS011;60850;52.502;13.426;2023-05-29T00:43:02;8.23;;;3.05;;
56927;SDS011;60850;52.502;13.426;2023-05-29T00:45:29;7.25;;;2.58;;
56927;SDS011;60850;52.502;13.426;2023-05-29T00:47:56;4.28;;;2.40;;
56927;SDS011;60850;52.502;13.426;2023-05-29T00:50:24;7.72;;;2.70;;
56927;SDS011;60850;52.502;13.426;2023-05-29T00:52:52;9.82;;;3.03;;
56927;SDS011;60850;52.502;13.426;2023-05-29T00:55:19;8.30;;;2.67;;
56927;SDS011;60850;52.502;13.426;2023-05-29T00:57:46;9.13;;;3.08;;
56927;SDS011;60850;52.502;13.426;2023-05-29T01:00:16;5.68;;;2.65;;
56927;SDS011;60850;52.502;13.426;2023-05-29T01:02:45;5.85;;;2.47;;
56927;SDS011;60850;52.502;13.426;2023-05-29T01:05:14;8.25;;;3.08;;
56927;SDS011;60850;52.502;13.426;2023-05-29T01:07:41;8.38;;;2.58;;
56927;SDS011;60850;52.502;13.426;2023-05-29T01:10:08;5.85;;;2.92;;
56927;SDS011;60850;52.502;13.426;2023-05-29T01:12:38;8.07;;;2.72;;
56927;SDS011;60850;52.502;13.426;2023-05-29T01:15:27;8.30;;;2.97;;
56927;SDS011;60850;52.502;13.426;2023-05-29T01:18:12;5.80;;;2.83;;
56927;SDS011;60850;52.502;13.426;2023-05-29T01:20:50;8.05;;;3.35;;
56927;SDS011;60850;52.502;13.426;2023-05-29T01:23:38;7.30;;;3.13;;
56927;SDS011;60850;52.502;13.426;2023-05-29T01:26:21;9.90;;;3.10;;
56927;SDS011;60850;52.502;13.426;2023-05-29T01:29:02;7.13;;;3.35;;
56927;SDS011;60850;52.502;13.426;2023-05-29T01:31:34;9.38;;;3.08;;
56927;SDS011;60850;52.502;13.426;2023-05-29T01:34:03;10.30;;;3.60;;
56927;SDS011;60850;52.502;13.426;2023-05-29T01:36:30;10.65;;;3.63;;
56927;SDS011;60850;52.502;13.426;2023-05-29T01:38:58;8.30;;;3.10;;
56927;SDS011;60850;52.502;13.426;2023-05-29T01:41:26;8.15;;;2.60;;
56927;SDS011;60850;52.502;13.426;2023-05-29T01:43:56;10.13;;;3.00;;
56927;SDS011;60850;52.502;13.426;2023-05-29T01:46:25;6.57;;;2.75;;
56927;SDS011;60850;52.502;13.426;2023-05-29T01:48:51;8.85;;;2.67;;
56927;SDS011;60850;52.502;13.426;2023-05-29T01:51:20;8.20;;;2.40;;
56927;SDS011;60850;52.502;13.426;2023-05-29T01:53:47;10.10;;;3.28;;
56927;SDS011;60850;52.502;13.426;2023-05-29T01:56:14;8.57;;;2.85;;
56927;SDS011;60850;52.502;13.426;2023-05-29T01:58:41;10.15;;;2.97;;
56927;SDS011;60850;52.502;13.426;2023-05-29T02:01:11;10.48;;;3.80;;
56927;SDS011;60850;52.502;13.426;2023-05-29T02:03:38;7.55;;;2.78;;
56927;SDS011;60850;52.502;13.426;2023-05-29T02:06:05;6.55;;;2.67;;
56927;SDS011;60850;52.502;13.426;2023-05-29T02:08:32;8.45;;;3.63;;
56927;SDS011;60850;52.502;13.426;2023-05-29T02:11:00;8.60;;;2.80;;
56927;SDS011;60850;52.502;13.426;2023-05-29T02:13:26;11.32;;;3.53;;
56927;SDS011;60850;52.502;13.426;2023-05-29T02:15:53;7.00;;;3.00;;
56927;SDS011;60850;52.502;13.426;2023-05-29T02:18:22;6.65;;;2.90;;
56927;SDS011;60850;52.502;13.426;2023-05-29T02:20:49;7.65;;;2.50;;
56927;SDS011;60850;52.502;13.426;2023-05-29T02:23:16;7.05;;;2.83;;
56927;SDS011;60850;52.502;13.426;2023-05-29T02:25:44;10.63;;;3.88;;
56927;SDS011;60850;52.502;13.426;2023-05-29T02:28:11;9.07;;;3.35;;
56927;SDS011;60850;52.502;13.426;2023-05-29T02:30:38;9.02;;;3.40;;
56927;SDS011;60850;52.502;13.426;2023-05-29T02:33:05;7.47;;;3.22;;
56927;SDS011;60850;52.502;13.426;2023-05-29T02:35:35;8.55;;;3.33;;
56927;SDS011;60850;52.502;13.426;2023-05-29T02:38:02;8.90;;;3.38;;
56927;SDS011;60850;52.502;13.426;2023-05-29T02:40:29;10.23;;;3.30;;
56927;SDS011;60850;52.502;13.426;2023-05-29T02:42:56;6.88;;;3.38;;
56927;SDS011;60850;52.502;13.426;2023-05-29T02:45:23;8.18;;;3.28;;
56927;SDS011;60850;52.502;13.426;2023-05-29T02:47:49;9.98;;;4.13;;
56927;SDS011;60850;52.502;13.426;2023-05-29T02:50:16;12.13;;;4.82;;
56927;SDS011;60850;52.502;13.426;2023-05-29T02:52:45;11.38;;;4.30;;
56927;SDS011;60850;52.502;13.426;2023-05-29T02:55:12;7.20;;;3.70;;
56927;SDS011;60850;52.502;13.426;2023-05-29T02:57:39;11.82;;;4.10;;
56927;SDS011;60850;52.502;13.426;2023-05-29T03:00:06;7.00;;;3.40;;
56927;SDS011;60850;52.502;13.426;2023-05-29T03:02:34;11.23;;;4.05;;
56927;SDS011;60850;52.502;13.426;2023-05-29T03:05:01;9.10;;;3.45;;
56927;SDS011;60850;52.502;13.426;2023-05-29T03:07:28;11.30;;;3.75;;
56927;SDS011;60850;52.502;13.426;2023-05-29T03:09:56;7.82;;;3.83;;
56927;SDS011;60850;52.502;13.426;2023-05-29T03:12:23;6.97;;;3.67;;
56927;SDS011;60850;52.502;13.426;2023-05-29T03:14:50;6.90;;;3.35;;
56927;SDS011;60850;52.502;13.426;2023-05-29T03:17:18;9.10;;;3.65;;
56927;SDS011;60850;52.502;13.426;2023-05-29T03:19:46;6.50;;;3.30;;
56927;SDS011;60850;52.502;13.426;2023-05-29T03:22:12;10.43;;;3.47;;
56927;SDS011;60850;52.502;13.426;2023-05-29T03:24:39;7.93;;;3.55;;
56927;SDS011;60850;52.502;13.426;2023-05-29T03:27:08;8.98;;;3.33;;
56927;SDS011;60850;52.502;13.426;2023-05-29T03:29:35;11.77;;;3.67;;
56927;SDS011;60850;52.502;13.426;2023-05-29T03:32:02;8.38;;;2.97;;
56927;SDS011;60850;52.502;13.426;2023-05-29T03:34:29;8.75;;;3.15;;
56927;SDS011;60850;52.502;13.426;2023-05-29T03:36:56;6.75;;;2.63;;
56927;SDS011;60850;52.502;13.426;2023-05-29T03:39:23;7.18;;;2.90;;
56927;SDS011;60850;52.502;13.426;2023-05-29T03:41:50;11.43;;;3.72;;
56927;SDS011;60850;52.502;13.426;2023-05-29T03:44:19;9.02;;;3.17;;
56927;SDS011;60850;52.502;13.426;2023-05-29T03:46:45;9.70;;;2.95;;
56927;SDS011;60850;52.502;13.426;2023-05-29T03:49:12;7.78;;;2.60;;
56927;SDS011;60850;52.502;13.426;2023-05-29T03:51:39;7.18;;;3.10;;
56927;SDS011;60850;52.502;13.426;2023-05-29T03:54:06;8.38;;;2.88;;
56927;SDS011;60850;52.502;13.426;2023-05-29T03:56:33;6.60;;;3.00;;
56927;SDS011;60850;52.502;13.426;2023-05-29T03:59:01;6.25;;;3.20;;
56927;SDS011;60850;52.502;13.426;2023-05-29T04:01:30;9.07;;;3.65;;
56927;SDS011;60850;52.502;13.426;2023-05-29T04:03:57;5.05;;;2.90;;
56927;SDS011;60850;52.502;13.426;2023-05-29T04:06:24;8.20;;;2.90;;
56927;SDS011;60850;52.502;13.426;2023-05-29T04:08:51;6.28;;;3.38;;
56927;SDS011;60850;52.502;13.426;2023-05-29T04:11:18;5.45;;;2.80;;
56927;SDS011;60850;52.502;13.426;2023-05-29T04:13:46;4.20;;;2.85;;
56927;SDS011;60850;52.502;13.426;2023-05-29T04:16:13;8.20;;;3.17;;
56927;SDS011;60850;52.502;13.426;2023-05-29T04:18:41;5.72;;;2.97;;
56927;SDS011;60850;52.502;13.426;2023-05-29T04:21:08;5.90;;;2.30;;
56927;SDS011;60850;52.502;13.426;2023-05-29T04:23:35;6.03;;;3.08;;
56927;SDS011;60850;52.502;13.426;2023-05-29T04:26:07;6.85;;;2.85;;
56927;SDS011;60850;52.502;13.426;2023-05-29T04:31:03;5.38;;;2.38;;
56927;SDS011;60850;52.502;13.426;2023-05-29T04:33:31;6.10;;;2.65;;
56927;SDS011;60850;52.502;13.426;2023-05-29T04:35:59;6.82;;;2.70;;
56927;SDS011;60850;52.502;13.426;2023-05-29T04:38:29;6.18;;;2.78;;
56927;SDS011;60850;52.502;13.426;2023-05-29T04:40:56;6.22;;;2.83;;
56927;SDS011;60850;52.502;13.426;2023-05-29T04:43:24;8.75;;;2.80;;
56927;SDS011;60850;52.502;13.426;2023-05-29T04:45:51;7.32;;;2.50;;
56927;SDS011;60850;52.502;13.426;2023-05-29T04:48:18;6.32;;;2.60;;
56927;SDS011;60850;52.502;13.426;2023-05-29T04:50:45;5.85;;;2.53;;
56927;SDS011;60850;52.502;13.426;2023-05-29T04:53:15;6.20;;;2.90;;
56927;SDS011;60850;52.502;13.426;2023-05-29T04:55:42;5.85;;;3.10;;
56927;SDS011;60850;52.502;13.426;2023-05-29T04:58:09;5.95;;;2.50;;
56927;SDS011;60850;52.502;13.426;2023-05-29T05:00:37;5.88;;;2.55;;
56927;SDS011;60850;52.502;13.426;2023-05-29T05:03:04;6.35;;;2.65;;
56927;SDS011;60850;52.502;13.426;2023-05-29T05:05:31;9.48;;;3.10;;
56927;SDS011;60850;52.502;13.426;2023-05-29T05:07:58;5.57;;;2.28;;
56927;SDS011;60850;52.502;13.426;2023-05-29T05:10:29;6.78;;;2.85;;
56927;SDS011;60850;52.502;13.426;2023-05-29T05:12:56;7.35;;;2.13;;
56927;SDS011;60850;52.502;13.426;2023-05-29T05:15:23;4.93;;;2.58;;
56927;SDS011;60850;52.502;13.426;2023-05-29T05:17:50;4.85;;;2.60;;
56927;SDS011;60850;52.502;13.426;2023-05-29T05:20:17;5.82;;;2.35;;
56927;SDS011;60850;52.502;13.426;2023-05-29T05:22:44;7.93;;;2.60;;
56927;SDS011;60850;52.502;13.426;2023-05-29T05:25:11;6.07;;;2.85;;
56927;SDS011;60850;52.502;13.426;2023-05-29T05:27:39;5.40;;;2.55;;
56927;SDS011;60850;52.502;13.426;2023-05-29T05:30:06;4.18;;;2.42;;
56927;SDS011;60850;52.502;13.426;2023-05-29T05:32:34;4.25;;;2.17;;
56927;SDS011;60850;52.502;13.426;2023-05-29T05:35:01;6.05;;;3.78;;
56927;SDS011;60850;52.502;13.426;2023-05-29T05:37:29;5.97;;;2.47;;
56927;SDS011;60850;52.502;13.426;2023-05-29T05:39:55;4.95;;;2.30;;
56927;SDS011;60850;52.502;13.426;2023-05-29T05:42:23;5.65;;;2.08;;
56927;SDS011;60850;52.502;13.426;2023-05-29T05:44:52;4.65;;;2.17;;
56927;SDS011;60850;52.502;13.426;2023-05-29T05:47:19;3.90;;;2.20;;
56927;SDS011;60850;52.502;13.426;2023-05-29T05:49:45;4.90;;;2.13;;
56927;SDS011;60850;52.502;13.426;2023-05-29T05:52:14;4.32;;;2.40;;
56927;SDS011;60850;52.502;13.426;2023-05-29T05:54:41;4.18;;;2.13;;
56927;SDS011;60850;52.502;13.426;2023-05-29T05:57:08;4.30;;;2.28;;
56927;SDS011;60850;52.502;13.426;2023-05-29T05:59:36;4.13;;;1.92;;
56927;SDS011;60850;52.502;13.426;2023-05-29T06:02:06;3.33;;;1.92;;
56927;SDS011;60850;52.502;13.426;2023-05-29T06:04:33;3.88;;;2.35;;
56927;SDS011;60850;52.502;13.426;2023-05-29T06:07:00;7.82;;;1.73;;
56927;SDS011;60850;52.502;13.426;2023-05-29T06:09:27;3.55;;;1.77;;
56927;SDS011;60850;52.502;13.426;2023-05-29T06:11:54;3.42;;;2.00;;
56927;SDS011;60850;52.502;13.426;2023-05-29T06:14:21;3.30;;;1.73;;
56927;SDS011;60850;52.502;13.426;2023-05-29T06:16:50;3.95;;;2.40;;
56927;SDS011;60850;52.502;13.426;2023-05-29T06:19:18;4.18;;;2.00;;
56927;SDS011;60850;52.502;13.426;2023-05-29T06:21:45;4.45;;;2.08;;
56927;SDS011;60850;52.502;13.426;2023-05-29T06:24:13;3.10;;;1.80;;
56927;SDS011;60850;52.502;13.426;2023-05-29T06:26:40;4.35;;;1.80;;
56927;SDS011;60850;52.502;13.426;2023-05-29T06:29:06;2.35;;;1.60;;
56927;SDS011;60850;52.502;13.426;2023-05-29T06:31:34;2.72;;;1.60;;
56927;SDS011;60850;52.502;13.426;2023-05-29T06:34:00;3.42;;;1.67;;
56927;SDS011;60850;52.502;13.426;2023-05-29T06:36:29;3.88;;;1.98;;
56927;SDS011;60850;52.502;13.426;2023-05-29T06:38:57;3.47;;;1.60;;
56927;SDS011;60850;52.502;13.426;2023-05-29T06:41:24;2.80;;;1.75;;
56927;SDS011;60850;52.502;13.426;2023-05-29T06:43:51;2.55;;;1.30;;
56927;SDS011;60850;52.502;13.426;2023-05-29T06:46:18;2.63;;;1.90;;
56927;SDS011;60850;52.502;13.426;2023-05-29T06:48:45;2.10;;;1.67;;
56927;SDS011;60850;52.502;13.426;2023-05-29T06:51:12;2.75;;;1.58;;
56927;SDS011;60850;52.502;13.426;2023-05-29T06:53:41;4.55;;;1.50;;
56927;SDS011;60850;52.502;13.426;2023-05-29T06:56:08;2.92;;;1.65;;
56927;SDS011;60850;52.502;13.426;2023-05-29T06:58:35;4.57;;;2.10;;
56927;SDS011;60850;52.502;13.426;2023-05-29T07:01:02;3.63;;;1.50;;
56927;SDS011;60850;52.502;13.426;2023-05-29T07:03:29;4.97;;;1.50;;
56927;SDS011;60850;52.502;13.426;2023-05-29T07:05:56;2.85;;;1.60;;
56927;SDS011;60850;52.502;13.426;2023-05-29T07:08:23;4.07;;;1.50;;
56927;SDS011;60850;52.502;13.426;2023-05-29T07:10:52;3.40;;;1.50;;
56927;SDS011;60850;52.502;13.426;2023-05-29T07:13:19;2.75;;;1.40;;
56927;SDS011;60850;52.502;13.426;2023-05-29T07:15:47;5.57;;;2.00;;
56927;SDS011;60850;52.502;13.426;2023-05-29T07:18:14;2.55;;;1.45;;
56927;SDS011;60850;52.502;13.426;2023-05-29T07:20:41;2.50;;;1.58;;
56927;SDS011;60850;52.502;13.426;2023-05-29T07:23:08;3.35;;;1.40;;
56927;SDS011;60850;52.502;13.426;2023-05-29T07:25:35;3.88;;;1.40;;
56927;SDS011;60850;52.502;13.426;2023-05-29T07:28:04;2.95;;;1.35;;
56927;SDS011;60850;52.502;13.426;2023-05-29T07:30:31;4.32;;;1.92;;
56927;SDS011;60850;52.502;13.426;2023-05-29T07:32:58;3.90;;;1.77;;
56927;SDS011;60850;52.502;13.426;2023-05-29T07:35:25;5.55;;;1.35;;
56927;SDS011;60850;52.502;13.426;2023-05-29T07:37:52;3.20;;;1.40;;
56927;SDS011;60850;52.502;13.426;2023-05-29T07:40:19;2.30;;;1.15;;
56927;SDS011;60850;52.502;13.426;2023-05-29T07:42:46;1.98;;;1.30;;
56927;SDS011;60850;52.502;13.426;2023-05-29T07:45:14;3.20;;;1.67;;
56927;SDS011;60850;52.502;13.426;2023-05-29T07:47:41;3.72;;;1.83;;
56927;SDS011;60850;52.502;13.426;2023-05-29T07:50:09;2.42;;;1.30;;
56927;SDS011;60850;52.502;13.426;2023-05-29T07:52:36;2.90;;;1.35;;
56927;SDS011;60850;52.502;13.426;2023-05-29T07:55:03;3.22;;;1.40;;
56927;SDS011;60850;52.502;13.426;2023-05-29T07:57:30;5.43;;;1.50;;
56927;SDS011;60850;52.502;13.426;2023-05-29T07:59:58;3.55;;;1.52;;
56927;SDS011;60850;52.502;13.426;2023-05-29T08:02:26;4.60;;;1.60;;
56927;SDS011;60850;52.502;13.426;2023-05-29T08:04:53;3.35;;;1.50;;
56927;SDS011;60850;52.502;13.426;2023-05-29T08:07:20;5.03;;;1.50;;
56927;SDS011;60850;52.502;13.426;2023-05-29T08:09:47;3.97;;;1.75;;
56927;SDS011;60850;52.502;13.426;2023-05-29T08:12:14;3.15;;;1.73;;
56927;SDS011;60850;52.502;13.426;2023-05-29T08:14:41;1.77;;;1.23;;
56927;SDS011;60850;52.502;13.426;2023-05-29T08:17:08;2.67;;;1.67;;
56927;SDS011;60850;52.502;13.426;2023-05-29T08:19:36;3.40;;;1.67;;
56927;SDS011;60850;52.502;13.426;2023-05-29T08:22:03;3.03;;;1.40;;
56927;SDS011;60850;52.502;13.426;2023-05-29T08:24:31;3.03;;;1.80;;
56927;SDS011;60850;52.502;13.426;2023-05-29T08:26:57;3.42;;;1.50;;
56927;SDS011;60850;52.502;13.426;2023-05-29T08:29:25;2.42;;;1.60;;
56927;SDS011;60850;52.502;13.426;2023-05-29T08:31:52;2.20;;;1.70;;
56927;SDS011;60850;52.502;13.426;2023-05-29T08:34:19;3.38;;;1.50;;
56927;SDS011;60850;52.502;13.426;2023-05-29T08:36:47;2.20;;;1.50;;
56927;SDS011;60850;52.502;13.426;2023-05-29T08:39:16;3.50;;;1.88;;
56927;SDS011;60850;52.502;13.426;2023-05-29T08:41:45;3.40;;;1.80;;
56927;SDS011;60850;52.502;13.426;2023-05-29T08:44:18;4.40;;;2.53;;
56927;SDS011;60850;52.502;13.426;2023-05-29T08:46:49;5.30;;;2.00;;
56927;SDS011;60850;52.502;13.426;2023-05-29T08:49:21;2.50;;;1.67;;
56927;SDS011;60850;52.502;13.426;2023-05-29T08:51:52;5.32;;;1.80;;
56927;SDS011;60850;52.502;13.426;2023-05-29T08:54:27;2.50;;;1.63;;
56927;SDS011;60850;52.502;13.426;2023-05-29T08:56:57;4.07;;;1.85;;
56927;SDS011;60850;52.502;13.426;2023-05-29T08:59:25;3.28;;;1.83;;
56927;SDS011;60850;52.502;13.426;2023-05-29T09:01:52;3.35;;;1.65;;
56927;SDS011;60850;52.502;13.426;2023-05-29T09:04:19;2.95;;;1.85;;
56927;SDS011;60850;52.502;13.426;2023-05-29T09:06:46;4.93;;;1.73;;
56927;SDS011;60850;52.502;13.426;2023-05-29T09:09:15;2.97;;;1.65;;
56927;SDS011;60850;52.502;13.426;2023-05-29T09:11:43;3.85;;;1.80;;
56927;SDS011;60850;52.502;13.426;2023-05-29T09:14:11;3.83;;;1.70;;
56927;SDS011;60850;52.502;13.426;2023-05-29T09:16:58;3.05;;;1.80;;
56927;SDS011;60850;52.502;13.426;2023-05-29T09:19:26;3.72;;;2.05;;
56927;SDS011;60850;52.502;13.426;2023-05-29T09:21:59;9.50;;;2.10;;
56927;SDS011;60850;52.502;13.426;2023-05-29T09:24:28;3.85;;;2.00;;
56927;SDS011;60850;52.502;13.426;2023-05-29T09:26:56;7.43;;;2.88;;
56927;SDS011;60850;52.502;13.426;2023-05-29T09:29:25;2.85;;;1.92;;
56927;SDS011;60850;52.502;13.426;2023-05-29T09:31:52;2.85;;;1.60;;
56927;SDS011;60850;52.502;13.426;2023-05-29T09:34:19;2.92;;;1.90;;
56927;SDS011;60850;52.502;13.426;2023-05-29T09:36:45;2.58;;;1.70;;
56927;SDS011;60850;52.502;13.426;2023-05-29T09:39:12;3.95;;;1.83;;
56927;SDS011;60850;52.502;13.426;2023-05-29T09:41:44;4.55;;;2.75;;
56927;SDS011;60850;52.502;13.426;2023-05-29T09:44:12;3.20;;;1.88;;
56927;SDS011;60850;52.502;13.426;2023-05-29T09:46:39;3.67;;;1.92;;
56927;SDS011;60850;52.502;13.426;2023-05-29T09:49:08;4.13;;;2.38;;
56927;SDS011;60850;52.502;13.426;2023-05-29T09:51:36;5.00;;;1.90;;
56927;SDS011;60850;52.502;13.426;2023-05-29T09:54:14;3.63;;;1.95;;
56927;SDS011;60850;52.502;13.426;2023-05-29T09:56:42;5.15;;;3.70;;
56927;SDS011;60850;52.502;13.426;2023-05-29T09:59:12;9.82;;;2.65;;
56927;SDS011;60850;52.502;13.426;2023-05-29T10:01:41;5.40;;;2.45;;
56927;SDS011;60850;52.502;13.426;2023-05-29T10:04:10;4.43;;;2.10;;
56927;SDS011;60850;52.502;13.426;2023-05-29T10:06:41;3.90;;;2.20;;
56927;SDS011;60850;52.502;13.426;2023-05-29T10:09:11;3.50;;;2.10;;
56927;SDS011;60850;52.502;13.426;2023-05-29T10:11:41;2.92;;;1.70;;
56927;SDS011;60850;52.502;13.426;2023-05-29T10:14:10;4.13;;;2.05;;
56927;SDS011;60850;52.502;13.426;2023-05-29T10:16:45;3.53;;;2.30;;
56927;SDS011;60850;52.502;13.426;2023-05-29T10:19:16;5.78;;;2.72;;
56927;SDS011;60850;52.502;13.426;2023-05-29T10:21:48;6.53;;;2.28;;
56927;SDS011;60850;52.502;13.426;2023-05-29T10:24:15;5.18;;;2.28;;
56927;SDS011;60850;52.502;13.426;2023-05-29T10:26:45;6.22;;;2.58;;
56927;SDS011;60850;52.502;13.426;2023-05-29T10:29:17;7.47;;;3.70;;
56927;SDS011;60850;52.502;13.426;2023-05-29T10:31:55;4.70;;;2.35;;
56927;SDS011;60850;52.502;13.426;2023-05-29T10:34:31;4.80;;;2.63;;
56927;SDS011;60850;52.502;13.426;2023-05-29T10:37:06;4.18;;;2.17;;
56927;SDS011;60850;52.502;13.426;2023-05-29T10:39:42;4.85;;;2.17;;
56927;SDS011;60850;52.502;13.426;2023-05-29T10:45:11;9.20;;;3.92;;
56927;SDS011;60850;52.502;13.426;2023-05-29T10:48:40;4.47;;;2.40;;
56927;SDS011;60850;52.502;13.426;2023-05-29T10:51:10;5.88;;;2.42;;
56927;SDS011;60850;52.502;13.426;2023-05-29T10:53:50;4.53;;;2.40;;
56927;SDS011;60850;52.502;13.426;2023-05-29T10:56:20;4.10;;;2.20;;
56927;SDS011;60850;52.502;13.426;2023-05-29T10:58:51;4.28;;;2.15;;
56927;SDS011;60850;52.502;13.426;2023-05-29T11:01:22;3.85;;;2.03;;
56927;SDS011;60850;52.502;13.426;2023-05-29T11:03:50;3.33;;;2.15;;
56927;SDS011;60850;52.502;13.426;2023-05-29T11:06:18;3.15;;;2.03;;
56927;SDS011;60850;52.502;13.426;2023-05-29T11:08:46;4.57;;;2.08;;
56927;SDS011;60850;52.502;13.426;2023-05-29T11:11:14;6.10;;;3.28;;
56927;SDS011;60850;52.502;13.426;2023-05-29T11:13:42;6.25;;;2.15;;
56927;SDS011;60850;52.502;13.426;2023-05-29T11:16:19;3.33;;;2.10;;
56927;SDS011;60850;52.502;13.426;2023-05-29T11:19:03;3.28;;;1.98;;
56927;SDS011;60850;52.502;13.426;2023-05-29T11:21:34;5.25;;;1.67;;
56927;SDS011;60850;52.502;13.426;2023-05-29T11:24:21;5.30;;;2.20;;
56927;SDS011;60850;52.502;13.426;2023-05-29T11:26:50;4.32;;;2.15;;
56927;SDS011;60850;52.502;13.426;2023-05-29T11:29:20;2.80;;;2.00;;
56927;SDS011;60850;52.502;13.426;2023-05-29T11:31:53;3.40;;;2.55;;
56927;SDS011;60850;52.502;13.426;2023-05-29T11:34:24;2.13;;;1.58;;
56927;SDS011;60850;52.502;13.426;2023-05-29T11:36:56;4.57;;;1.80;;
56927;SDS011;60850;52.502;13.426;2023-05-29T11:39:23;3.38;;;2.05;;
56927;SDS011;60850;52.502;13.426;2023-05-29T11:41:50;7.10;;;2.30;;
56927;SDS011;60850;52.502;13.426;2023-05-29T11:44:18;4.28;;;1.90;;
56927;SDS011;60850;52.502;13.426;2023-05-29T11:46:45;4.38;;;2.33;;
56927;SDS011;60850;52.502;13.426;2023-05-29T11:49:27;4.72;;;2.05;;
56927;SDS011;60850;52.502;13.426;2023-05-29T11:51:54;4.00;;;2.10;;
56927;SDS011;60850;52.502;13.426;2023-05-29T11:54:32;6.18;;;2.22;;
56927;SDS011;60850;52.502;13.426;2023-05-29T11:56:59;13.50;;;3.85;;
56927;SDS011;60850;52.502;13.426;2023-05-29T11:59:28;7.78;;;2.00;;
56927;SDS011;60850;52.502;13.426;2023-05-29T12:01:55;4.35;;;2.20;;
56927;SDS011;60850;52.502;13.426;2023-05-29T12:04:23;3.90;;;2.28;;
56927;SDS011;60850;52.502;13.426;2023-05-29T12:06:50;4.07;;;2.13;;
56927;SDS011;60850;52.502;13.426;2023-05-29T12:09:24;3.42;;;2.25;;
56927;SDS011;60850;52.502;13.426;2023-05-29T12:11:53;5.55;;;2.90;;
56927;SDS011;60850;52.502;13.426;2023-05-29T12:14:20;8.57;;;2.25;;
56927;SDS011;60850;52.502;13.426;2023-05-29T12:16:47;5.07;;;1.75;;
56927;SDS011;60850;52.502;13.426;2023-05-29T12:19:14;5.68;;;2.25;;
56927;SDS011;60850;52.502;13.426;2023-05-29T12:21:42;3.47;;;2.13;;
56927;SDS011;60850;52.502;13.426;2023-05-29T12:24:10;3.17;;;1.58;;
56927;SDS011;60850;52.502;13.426;2023-05-29T12:26:37;9.80;;;2.28;;
56927;SDS011;60850;52.502;13.426;2023-05-29T12:29:04;3.38;;;2.00;;
56927;SDS011;60850;52.502;13.426;2023-05-29T12:31:31;4.18;;;2.08;;
56927;SDS011;60850;52.502;13.426;2023-05-29T12:34:02;2.97;;;1.85;;
56927;SDS011;60850;52.502;13.426;2023-05-29T12:36:34;2.83;;;1.70;;
56927;SDS011;60850;52.502;13.426;2023-05-29T12:39:04;4.70;;;1.83;;
56927;SDS011;60850;52.502;13.426;2023-05-29T12:41:34;5.40;;;2.20;;
56927;SDS011;60850;52.502;13.426;2023-05-29T12:44:02;2.67;;;1.60;;
56927;SDS011;60850;52.502;13.426;2023-05-29T12:46:34;6.25;;;2.58;;
56927;SDS011;60850;52.502;13.426;2023-05-29T12:49:11;4.90;;;1.92;;
56927;SDS011;60850;52.502;13.426;2023-05-29T12:51:40;2.95;;;1.85;;
56927;SDS011;60850;52.502;13.426;2023-05-29T12:54:09;4.50;;;2.25;;
56927;SDS011;60850;52.502;13.426;2023-05-29T12:56:36;5.18;;;2.03;;
56927;SDS011;60850;52.502;13.426;2023-05-29T12:59:05;4.35;;;1.73;;
56927;SDS011;60850;52.502;13.426;2023-05-29T13:01:32;3.65;;;1.83;;
56927;SDS011;60850;52.502;13.426;2023-05-29T13:03:59;5.07;;;2.00;;
56927;SDS011;60850;52.502;13.426;2023-05-29T13:06:26;4.50;;;1.98;;
56927;SDS011;60850;52.502;13.426;2023-05-29T13:08:53;6.65;;;1.90;;
56927;SDS011;60850;52.502;13.426;2023-05-29T13:11:21;5.32;;;2.30;;
56927;SDS011;60850;52.502;13.426;2023-05-29T13:13:48;6.30;;;3.22;;
56927;SDS011;60850;52.502;13.426;2023-05-29T13:16:15;6.95;;;3.03;;
56927;SDS011;60850;52.502;13.426;2023-05-29T13:18:43;5.80;;;2.72;;
56927;SDS011;60850;52.502;13.426;2023-05-29T13:21:10;8.02;;;2.95;;
56927;SDS011;60850;52.502;13.426;2023-05-29T13:23:37;8.30;;;3.05;;
56927;SDS011;60850;52.502;13.426;2023-05-29T13:26:04;6.78;;;2.80;;
56927;SDS011;60850;52.502;13.426;2023-05-29T13:28:32;5.22;;;2.70;;
56927;SDS011;60850;52.502;13.426;2023-05-29T13:31:00;4.60;;;2.10;;
56927;SDS011;60850;52.502;13.426;2023-05-29T13:33:26;4.90;;;2.28;;
56927;SDS011;60850;52.502;13.426;2023-05-29T13:35:53;3.75;;;2.03;;
56927;SDS011;60850;52.502;13.426;2023-05-29T13:38:20;8.82;;;2.95;;
56927;SDS011;60850;52.502;13.426;2023-05-29T13:40:47;4.25;;;2.10;;
56927;SDS011;60850;52.502;13.426;2023-05-29T13:43:14;7.68;;;2.30;;
56927;SDS011;60850;52.502;13.426;2023-05-29T13:45:42;4.40;;;2.08;;
56927;SDS011;60850;52.502;13.426;2023-05-29T13:48:09;8.13;;;2.50;;
56927;SDS011;60850;52.502;13.426;2023-05-29T13:50:36;8.07;;;3.08;;
56927;SDS011;60850;52.502;13.426;2023-05-29T13:53:03;3.88;;;2.30;;
56927;SDS011;60850;52.502;13.426;2023-05-29T13:55:30;4.38;;;2.00;;
56927;SDS011;60850;52.502;13.426;2023-05-29T13:57:57;6.53;;;1.88;;
56927;SDS011;60850;52.502;13.426;2023-05-29T14:00:24;4.93;;;2.13;;
56927;SDS011;60850;52.502;13.426;2023-05-29T14:02:52;4.10;;;2.13;;
56927;SDS011;60850;52.502;13.426;2023-05-29T14:05:19;5.40;;;1.90;;
56927;SDS011;60850;52.502;13.426;2023-05-29T14:07:46;4.88;;;1.73;;
56927;SDS011;60850;52.502;13.426;2023-05-29T14:10:13;4.40;;;2.10;;
56927;SDS011;60850;52.502;13.426;2023-05-29T14:12:40;4.72;;;1.73;;
56927;SDS011;60850;52.502;13.426;2023-05-29T14:15:08;5.93;;;1.75;;
56927;SDS011;60850;52.502;13.426;2023-05-29T14:17:36;6.68;;;2.13;;
56927;SDS011;60850;52.502;13.426;2023-05-29T14:20:05;8.77;;;2.65;;
56927;SDS011;60850;52.502;13.426;2023-05-29T14:22:33;5.75;;;2.60;;
56927;SDS011;60850;52.502;13.426;2023-05-29T14:25:02;4.13;;;1.92;;
56927;SDS011;60850;52.502;13.426;2023-05-29T14:27:30;5.30;;;1.90;;
56927;SDS011;60850;52.502;13.426;2023-05-29T14:29:57;2.42;;;1.70;;
56927;SDS011;60850;52.502;13.426;2023-05-29T14:32:23;8.07;;;4.13;;
56927;SDS011;60850;52.502;13.426;2023-05-29T14:34:51;5.38;;;1.80;;
56927;SDS011;60850;52.502;13.426;2023-05-29T14:37:19;4.60;;;2.05;;
56927;SDS011;60850;52.502;13.426;2023-05-29T14:39:46;5.80;;;2.22;;
56927;SDS011;60850;52.502;13.426;2023-05-29T14:42:13;6.57;;;2.30;;
56927;SDS011;60850;52.502;13.426;2023-05-29T14:44:41;6.22;;;2.30;;
56927;SDS011;60850;52.502;13.426;2023-05-29T14:47:07;5.38;;;2.20;;